Time;durP1;ratioP1;P1;durP2;ratioP2;P2;SDS_P1;SDS_P2;PMS_P1;PMS_P2;Temp;Humidity;BMP_temperature;BMP_pressure;BME280_temperature;BME280_humidity;BME280_pressure;Samples;Min_cycle;Max_cycle;Signal;HPM_P1;HPM_P2
2021/03/28 00:01:53;;;;;;;8.23;2.08;;;7.40;51.60;;;;;;4970921;28;20039;-80
2021/03/28 00:04:23;;;;;;;11.88;1.95;;;7.40;51.70;;;;;;4978654;28;20123;-80
2021/03/28 00:06:48;;;;;;;16.80;2.33;;;7.30;52.40;;;;;;4978360;28;20042;-79
2021/03/28 00:09:34;;;;;;;10.63;2.35;;;7.30;52.20;;;;;;4974095;28;20030;-80
2021/03/28 00:12:18;;;;;;;8.88;1.77;;;7.30;52.50;;;;;;4972974;28;20133;-80
2021/03/28 00:14:46;;;;;;;7.20;2.15;;;7.20;52.60;;;;;;4974438;28;20038;-80
2021/03/28 00:17:38;;;;;;;8.32;1.70;;;7.20;53.90;;;;;;4974882;28;20077;-81
2021/03/28 00:20:16;;;;;;;9.75;2.20;;;7.20;53.80;;;;;;4973776;28;20035;-80
2021/03/28 00:23:08;;;;;;;12.00;2.20;;;7.10;54.70;;;;;;4973985;28;20509;-80
2021/03/28 00:25:46;;;;;;;7.75;1.98;;;7.10;55.20;;;;;;4971503;28;20499;-78
2021/03/28 00:28:29;;;;;;;14.43;2.30;;;7.10;54.70;;;;;;4974419;28;20057;-78
2021/03/28 00:31:23;;;;;;;14.05;2.10;;;7.00;55.90;;;;;;4975455;28;20057;-77
2021/03/28 00:34:04;;;;;;;8.15;1.83;;;7.00;55.70;;;;;;4972697;28;20045;-81
2021/03/28 00:36:37;;;;;;;8.60;1.88;;;7.00;55.20;;;;;;4968991;28;20039;-79
2021/03/28 00:39:08;;;;;;;6.13;1.85;;;7.00;55.60;;;;;;4972934;28;20091;-80
2021/03/28 00:41:39;;;;;;;8.90;2.25;;;7.00;56.20;;;;;;4974919;28;20043;-77
2021/03/28 00:44:21;;;;;;;13.85;2.30;;;7.00;56.30;;;;;;4970011;28;20031;-78
2021/03/28 00:46:57;;;;;;;17.50;2.70;;;6.90;57.70;;;;;;4970906;28;20034;-79
2021/03/28 00:49:28;;;;;;;11.23;1.90;;;6.90;58.30;;;;;;4980846;28;20038;-78
2021/03/28 00:52:03;;;;;;;9.23;1.90;;;6.80;58.30;;;;;;4973290;28;20043;-78
2021/03/28 00:54:50;;;;;;;6.03;1.75;;;6.80;58.70;;;;;;4975060;28;20054;-78
2021/03/28 00:57:34;;;;;;;15.23;1.98;;;6.80;59.00;;;;;;4976380;28;20418;-80
2021/03/28 01:00:33;;;;;;;9.68;1.95;;;6.80;59.60;;;;;;4978608;28;20137;-81
2021/03/28 01:03:09;;;;;;;8.93;1.80;;;6.70;59.60;;;;;;4973880;28;20513;-78
2021/03/28 01:05:53;;;;;;;9.30;1.88;;;6.70;60.40;;;;;;4974769;28;20050;-79
2021/03/28 01:08:51;;;;;;;13.20;2.50;;;6.70;60.60;;;;;;4974389;28;20039;-79
2021/03/28 01:11:53;;;;;;;14.52;2.05;;;6.70;61.30;;;;;;4974690;28;20038;-79
2021/03/28 01:14:50;;;;;;;10.00;2.10;;;6.60;61.50;;;;;;4978193;28;20046;-80
2021/03/28 01:17:20;;;;;;;9.80;1.83;;;6.60;62.00;;;;;;4974906;28;20402;-78
2021/03/28 01:19:55;;;;;;;11.02;2.05;;;6.50;62.10;;;;;;4974100;28;20049;-78
2021/03/28 01:22:44;;;;;;;14.10;2.08;;;6.50;62.30;;;;;;4972481;28;20078;-78
2021/03/28 01:25:32;;;;;;;8.90;2.20;;;6.50;62.90;;;;;;4972463;28;20051;-79
2021/03/28 01:28:18;;;;;;;12.57;1.80;;;6.50;63.30;;;;;;4976356;28;20835;-79
2021/03/28 01:30:48;;;;;;;6.90;1.58;;;6.50;63.30;;;;;;4984100;28;20111;-78
2021/03/28 01:33:22;;;;;;;10.10;2.00;;;6.50;63.30;;;;;;4979052;28;20110;-80
2021/03/28 01:36:06;;;;;;;9.70;2.03;;;6.40;63.50;;;;;;4970939;28;20041;-78
2021/03/28 01:39:07;;;;;;;6.63;1.50;;;6.40;63.90;;;;;;4977058;28;20039;-79
2021/03/28 01:41:39;;;;;;;9.45;2.20;;;6.30;64.60;;;;;;4970397;28;20026;-79
2021/03/28 01:44:12;;;;;;;7.55;2.30;;;6.30;65.20;;;;;;4978115;28;20414;-80
2021/03/28 01:46:52;;;;;;;5.95;1.83;;;6.40;65.00;;;;;;4985946;28;20038;-78
2021/03/28 01:49:41;;;;;;;9.98;1.90;;;6.40;65.00;;;;;;4988387;28;20061;-78
2021/03/28 01:52:25;;;;;;;16.90;2.47;;;6.40;64.80;;;;;;4973444;28;20125;-79
2021/03/28 01:55:09;;;;;;;6.13;1.60;;;6.40;65.20;;;;;;4977583;28;20105;-79
2021/03/28 01:57:37;;;;;;;9.18;1.80;;;6.30;65.50;;;;;;4972474;28;20049;-80
2021/03/28 02:00:24;;;;;;;9.82;2.03;;;6.30;65.50;;;;;;4970549;28;20034;-80
2021/03/28 02:03:09;;;;;;;7.30;2.38;;;6.30;65.90;;;;;;4969296;28;20081;-79
2021/03/28 02:05:57;;;;;;;15.02;2.17;;;6.40;65.50;;;;;;4969446;28;20077;-79
2021/03/28 02:09:00;;;;;;;14.43;2.03;;;6.50;65.30;;;;;;4986859;28;20066;-80
2021/03/28 02:11:44;;;;;;;15.95;1.77;;;6.40;65.10;;;;;;4972777;28;20062;-80
2021/03/28 02:14:16;;;;;;;6.00;2.00;;;6.50;64.80;;;;;;4968059;28;20590;-80
2021/03/28 02:16:50;;;;;;;6.18;1.85;;;6.40;64.80;;;;;;4967090;28;20042;-80
2021/03/28 02:19:23;;;;;;;6.15;2.00;;;6.40;65.10;;;;;;4968486;28;20059;-80
2021/03/28 02:22:16;;;;;;;7.65;2.80;;;6.30;65.10;;;;;;4967269;28;20043;-79
2021/03/28 02:25:09;;;;;;;9.07;1.42;;;6.40;65.70;;;;;;4975266;28;20026;-78
2021/03/28 02:28:04;;;;;;;8.10;1.50;;;6.30;66.20;;;;;;4972267;28;20150;-79
2021/03/28 02:30:40;;;;;;;9.25;1.98;;;6.30;66.30;;;;;;4978021;28;20044;-79
2021/03/28 02:33:27;;;;;;;9.98;1.80;;;6.30;66.20;;;;;;4987012;28;20089;-79
2021/03/28 02:36:04;;;;;;;9.02;1.83;;;6.30;66.40;;;;;;4974494;28;20034;-78
2021/03/28 02:39:01;;;;;;;13.77;2.28;;;6.30;66.30;;;;;;4981268;28;20042;-78
2021/03/28 02:42:07;;;;;;;11.85;2.33;;;6.30;66.50;;;;;;4968896;28;20126;-80
2021/03/28 02:44:38;;;;;;;10.00;1.77;;;6.30;66.90;;;;;;4967117;28;20057;-79
2021/03/28 02:47:04;;;;;;;8.38;1.55;;;6.30;66.20;;;;;;4966082;28;20097;-77
2021/03/28 02:49:50;;;;;;;13.65;3.15;;;6.40;65.80;;;;;;4965227;28;20038;-76
2021/03/28 02:52:49;;;;;;;9.95;2.58;;;6.50;65.40;;;;;;4964536;28;20042;-76
2021/03/28 02:55:37;;;;;;;14.80;2.20;;;6.50;65.40;;;;;;4966096;28;20096;-78
2021/03/28 02:58:08;;;;;;;12.30;1.98;;;6.50;65.80;;;;;;4975777;28;20031;-79
2021/03/28 03:01:11;;;;;;;13.45;2.20;;;6.50;65.30;;;;;;4968644;28;20042;-78
2021/03/28 03:04:00;;;;;;;8.27;1.52;;;6.50;65.50;;;;;;4984017;28;20108;-78
2021/03/28 03:07:03;;;;;;;9.00;1.70;;;6.40;65.70;;;;;;4971215;28;20079;-79
2021/03/28 03:09:56;;;;;;;10.15;1.75;;;6.50;65.60;;;;;;4979972;28;20045;-77
2021/03/28 03:12:32;;;;;;;14.40;2.70;;;6.50;65.50;;;;;;4979489;28;20061;-78
2021/03/28 03:15:35;;;;;;;7.35;1.88;;;6.40;65.80;;;;;;4970841;28;20045;-77
2021/03/28 03:18:06;;;;;;;10.77;1.88;;;6.40;66.10;;;;;;4983283;28;20035;-76
2021/03/28 03:20:47;;;;;;;15.70;2.25;;;6.30;66.50;;;;;;4984353;28;20887;-77
2021/03/28 03:23:57;;;;;;;18.77;2.08;;;6.30;66.00;;;;;;4976177;28;20038;-76
2021/03/28 03:26:34;;;;;;;10.50;2.28;;;6.40;65.60;;;;;;4976259;28;20046;-76
2021/03/28 03:29:06;;;;;;;9.15;1.75;;;6.40;65.80;;;;;;4974909;28;20130;-76
2021/03/28 03:31:37;;;;;;;10.43;1.98;;;6.30;66.10;;;;;;4965078;28;20038;-78
2021/03/28 03:34:27;;;;;;;6.25;1.23;;;6.30;66.40;;;;;;4973963;28;20104;-77
2021/03/28 03:37:17;;;;;;;5.20;1.70;;;6.30;65.90;;;;;;4976977;28;20046;-76
2021/03/28 03:39:58;;;;;;;10.23;1.85;;;6.30;65.80;;;;;;4976531;28;20039;-77
2021/03/28 03:42:44;;;;;;;7.25;1.55;;;6.40;65.50;;;;;;4972577;28;20108;-76
2021/03/28 03:45:31;;;;;;;10.25;1.73;;;6.40;65.70;;;;;;4987026;28;20137;-75
2021/03/28 03:48:14;;;;;;;14.07;2.10;;;6.30;65.70;;;;;;4976512;28;20043;-78
2021/03/28 03:51:06;;;;;;;10.85;1.92;;;6.30;66.00;;;;;;4974197;28;20034;-77
2021/03/28 03:53:50;;;;;;;5.63;1.50;;;6.30;65.50;;;;;;4987244;28;20424;-76
2021/03/28 03:56:37;;;;;;;22.10;2.83;;;6.20;65.90;;;;;;4974706;28;20045;-78
2021/03/28 03:59:12;;;;;;;5.05;2.00;;;6.20;66.50;;;;;;4979249;28;20039;-78
2021/03/28 04:01:58;;;;;;;13.63;2.17;;;6.20;66.60;;;;;;4976807;28;20058;-78
2021/03/28 04:05:01;;;;;;;13.50;2.03;;;6.30;66.10;;;;;;4974590;28;20035;-76
2021/03/28 04:07:46;;;;;;;8.00;2.10;;;6.30;65.60;;;;;;4973647;28;20045;-76
2021/03/28 04:10:29;;;;;;;8.13;2.00;;;6.30;66.20;;;;;;4980001;28;20038;-75
2021/03/28 04:13:42;;;;;;;8.43;1.98;;;6.10;67.10;;;;;;4974057;28;20027;-78
2021/03/28 04:16:33;;;;;;;9.40;1.90;;;6.10;67.80;;;;;;4998189;28;20069;-76
2021/03/28 04:19:14;;;;;;;13.75;2.38;;;6.10;68.00;;;;;;4975566;28;20050;-78
2021/03/28 04:22:07;;;;;;;4.72;1.45;;;6.00;68.20;;;;;;4978256;28;20034;-78
2021/03/28 04:24:45;;;;;;;8.25;1.60;;;5.90;72.30;;;;;;4974523;28;20085;-77
2021/03/28 04:27:19;;;;;;;8.27;1.42;;;5.80;71.90;;;;;;4973090;28;20586;-77
2021/03/28 04:29:48;;;;;;;7.60;1.77;;;5.80;74.70;;;;;;4984712;28;20034;-77
2021/03/28 04:32:16;;;;;;;7.13;1.98;;;5.70;76.00;;;;;;4975757;28;20042;-77
2021/03/28 04:34:48;;;;;;;8.45;1.88;;;5.60;78.00;;;;;;4973354;28;20038;-78
2021/03/28 04:37:44;;;;;;;11.30;1.63;;;5.60;78.00;;;;;;4984652;28;20035;-77
2021/03/28 04:40:53;;;;;;;8.20;1.80;;;5.50;78.40;;;;;;4986124;28;20046;-77
2021/03/28 04:43:57;;;;;;;11.30;2.10;;;5.40;80.00;;;;;;4970402;28;20116;-75
2021/03/28 04:47:00;;;;;;;8.43;2.00;;;5.40;81.30;;;;;;4972815;28;20035;-76
2021/03/28 04:49:43;;;;;;;10.18;1.77;;;5.30;82.60;;;;;;4969565;28;20082;-78
2021/03/28 04:52:36;;;;;;;5.72;1.63;;;5.30;84.20;;;;;;4967665;28;20049;-78
2021/03/28 04:55:28;;;;;;;7.55;1.60;;;5.30;84.60;;;;;;4970696;28;20046;-76
2021/03/28 04:58:12;;;;;;;8.15;1.85;;;5.20;84.90;;;;;;4968551;28;20038;-77
2021/03/28 05:00:47;;;;;;;11.75;1.63;;;5.20;85.70;;;;;;4967317;28;20050;-78
2021/03/28 05:03:50;;;;;;;6.18;1.75;;;5.20;86.50;;;;;;4968583;28;20117;-78
2021/03/28 05:06:46;;;;;;;11.93;2.10;;;5.10;86.70;;;;;;4971475;28;20061;-78
2021/03/28 05:09:34;;;;;;;6.30;1.75;;;5.10;86.60;;;;;;4975645;28;20248;-78
2021/03/28 05:12:18;;;;;;;7.88;2.08;;;5.00;88.10;;;;;;4973484;28;20030;-79
2021/03/28 05:14:46;;;;;;;17.17;2.35;;;4.90;88.70;;;;;;4973945;28;20043;-78
2021/03/28 05:17:24;;;;;;;13.30;1.88;;;4.90;89.10;;;;;;4977763;28;20037;-78
2021/03/28 05:20:01;;;;;;;8.57;2.15;;;4.90;90.00;;;;;;4972172;28;20789;-79
2021/03/28 05:22:56;;;;;;;6.95;1.73;;;4.80;89.80;;;;;;4971924;28;20035;-79
2021/03/28 05:25:53;;;;;;;11.88;1.80;;;4.80;90.20;;;;;;4972116;28;20120;-78
2021/03/28 05:28:25;;;;;;;12.32;1.92;;;4.80;91.30;;;;;;4969553;28;20497;-78
2021/03/28 05:31:18;;;;;;;9.23;2.15;;;4.80;91.80;;;;;;4974720;28;20081;-77
2021/03/28 05:33:54;;;;;;;7.45;2.15;;;4.80;92.00;;;;;;4978329;28;20074;-79
2021/03/28 05:36:31;;;;;;;8.75;1.48;;;4.80;92.20;;;;;;4971800;28;20078;-78
2021/03/28 05:39:22;;;;;;;7.10;1.67;;;4.80;92.20;;;;;;4967296;28;20043;-79
2021/03/28 05:42:14;;;;;;;6.20;1.83;;;4.80;92.00;;;;;;4967828;28;20086;-78
2021/03/28 05:45:28;;;;;;;11.30;1.90;;;4.80;92.20;;;;;;4973555;28;20238;-79
2021/03/28 05:48:08;;;;;;;5.82;1.60;;;4.80;92.20;;;;;;4973739;28;20103;-77
2021/03/28 05:50:48;;;;;;;9.77;1.85;;;4.90;92.40;;;;;;4972005;28;20039;-76
2021/03/28 05:53:29;;;;;;;14.02;1.77;;;4.90;92.50;;;;;;4986533;28;20030;-81
2021/03/28 05:56:23;;;;;;;4.80;1.38;;;5.00;92.60;;;;;;4974232;28;20038;-78
2021/03/28 05:59:13;;;;;;;10.77;1.75;;;5.00;92.50;;;;;;4965946;28;20409;-77
2021/03/28 06:02:13;;;;;;;10.73;1.95;;;5.00;92.70;;;;;;4983157;28;20050;-77
2021/03/28 06:04:56;;;;;;;11.77;1.75;;;5.00;93.00;;;;;;4969268;28;20529;-77
2021/03/28 06:08:21;;;;;;;8.37;1.90;;;5.00;92.70;;;;;;4973452;28;20053;-77
2021/03/28 06:10:49;;;;;;;9.63;2.22;;;5.10;92.40;;;;;;5002266;28;20053;-78
2021/03/28 06:13:36;;;;;;;7.55;1.90;;;5.10;92.60;;;;;;5003996;28;20068;-76
2021/03/28 06:16:35;;;;;;;14.68;2.17;;;5.10;92.70;;;;;;4999699;28;20030;-78
2021/03/28 06:19:22;;;;;;;8.25;2.30;;;5.20;92.60;;;;;;4973164;28;20018;-77
2021/03/28 06:22:46;;;;;;;13.45;2.40;;;5.20;92.80;;;;;;4976024;28;20043;-77
2021/03/28 06:25:37;;;;;;;9.68;1.90;;;5.30;92.60;;;;;;4975216;28;20039;-76
2021/03/28 06:28:40;;;;;;;12.73;2.40;;;5.50;92.20;;;;;;4993326;28;20031;-77
2021/03/28 06:31:08;;;;;;;7.57;2.20;;;5.60;91.80;;;;;;4976316;28;20707;-78
2021/03/28 06:33:59;;;;;;;8.98;1.80;;;5.80;91.50;;;;;;4976896;28;20983;-80
2021/03/28 06:36:46;;;;;;;9.95;1.73;;;5.90;90.60;;;;;;4974345;28;20328;-76
2021/03/28 06:39:51;;;;;;;8.90;1.70;;;6.10;89.40;;;;;;4990666;28;20141;-80
2021/03/28 06:42:54;;;;;;;11.70;2.15;;;6.30;87.00;;;;;;4970411;28;20201;-76
2021/03/28 06:45:52;;;;;;;8.80;1.50;;;6.60;85.70;;;;;;4968753;28;20037;-77
2021/03/28 06:48:42;;;;;;;11.40;2.00;;;6.90;83.40;;;;;;4979631;28;20574;-77
2021/03/28 06:51:39;;;;;;;10.65;1.83;;;7.10;82.30;;;;;;4975860;28;20035;-80
2021/03/28 06:54:35;;;;;;;9.10;2.08;;;7.40;79.20;;;;;;4974650;28;20096;-78
2021/03/28 06:57:26;;;;;;;7.80;2.35;;;7.70;78.70;;;;;;4974063;28;20093;-78
2021/03/28 07:00:14;;;;;;;14.15;2.00;;;8.10;74.70;;;;;;4977308;28;20148;-79
2021/03/28 07:02:52;;;;;;;15.60;1.90;;;8.60;71.60;;;;;;4980414;28;20517;-81
2021/03/28 07:05:42;;;;;;;10.48;2.13;;;9.00;68.70;;;;;;4990737;28;20039;-81
2021/03/28 07:08:11;;;;;;;6.78;1.58;;;9.60;65.20;;;;;;4978849;28;20089;-79
2021/03/28 07:10:45;;;;;;;9.48;2.13;;;10.10;61.30;;;;;;4984277;28;20042;-80
2021/03/28 07:13:17;;;;;;;9.02;2.05;;;10.40;57.60;;;;;;4990273;28;20042;-80
2021/03/28 07:15:50;;;;;;;7.63;2.20;;;10.30;55.20;;;;;;4991978;28;20070;-81
2021/03/28 07:18:53;;;;;;;7.68;2.30;;;10.30;53.60;;;;;;4988997;28;20046;-81
2021/03/28 07:21:43;;;;;;;6.93;1.70;;;10.50;54.20;;;;;;4997708;28;20034;-82
2021/03/28 07:24:15;;;;;;;6.10;1.75;;;10.40;53.50;;;;;;4997594;28;20042;-82
2021/03/28 07:27:01;;;;;;;7.65;1.95;;;10.10;53.40;;;;;;4998133;28;20058;-82
2021/03/28 07:30:03;;;;;;;5.20;1.92;;;10.30;53.80;;;;;;5005253;28;20038;-81
2021/03/28 07:32:54;;;;;;;9.25;1.70;;;10.30;52.00;;;;;;4998659;28;20057;-84
2021/03/28 07:35:37;;;;;;;8.90;1.98;;;10.40;52.30;;;;;;5000208;28;20090;-83
2021/03/28 07:38:20;;;;;;;14.35;2.83;;;10.70;51.90;;;;;;5004526;28;20051;-83
2021/03/28 07:41:07;;;;;;;14.00;2.03;;;10.90;51.20;;;;;;4998036;28;20082;-82
2021/03/28 07:43:48;;;;;;;7.53;1.98;;;11.00;49.80;;;;;;4999408;28;20618;-82
2021/03/28 07:46:51;;;;;;;5.90;1.58;;;11.10;49.70;;;;;;4978944;28;20031;-82
2021/03/28 07:50:13;;;;;;;14.68;2.22;;;11.40;47.10;;;;;;4998190;28;20030;-82
2021/03/28 07:53:07;;;;;;;9.73;2.53;;;11.60;45.50;;;;;;5013600;28;20037;-82
2021/03/28 07:55:33;;;;;;;9.13;2.08;;;11.90;43.80;;;;;;5015671;28;20033;-83
2021/03/28 07:58:28;;;;;;;11.15;2.33;;;12.00;44.20;;;;;;4985905;28;20564;-83
2021/03/28 08:01:33;;;;;;;13.20;1.98;;;12.20;43.90;;;;;;4993154;28;20042;-81
2021/03/28 08:04:20;;;;;;;13.75;2.72;;;12.10;43.40;;;;;;4974907;28;20039;-81
2021/03/28 08:07:23;;;;;;;11.43;2.50;;;12.00;42.50;;;;;;4976207;28;20038;-83
2021/03/28 08:10:12;;;;;;;9.85;2.25;;;11.90;43.50;;;;;;4986285;28;20035;-82
2021/03/28 08:12:59;;;;;;;6.97;1.85;;;12.10;43.60;;;;;;4977900;28;20065;-80
2021/03/28 08:15:48;;;;;;;7.68;1.70;;;12.10;43.40;;;;;;4985697;28;20611;-77
2021/03/28 08:18:21;;;;;;;15.75;2.13;;;11.80;42.90;;;;;;4970498;28;20051;-83
2021/03/28 08:21:08;;;;;;;17.42;2.90;;;11.60;43.20;;;;;;4973220;28;20070;-82
2021/03/28 08:23:55;;;;;;;13.05;1.92;;;11.80;44.10;;;;;;4971703;28;20050;-86
2021/03/28 08:27:02;;;;;;;13.80;1.67;;;11.70;44.80;;;;;;4971047;28;20035;-85
2021/03/28 08:29:33;;;;;;;12.25;2.13;;;11.90;44.70;;;;;;4970453;28;20094;-82
2021/03/28 08:32:17;;;;;;;7.72;2.53;;;12.00;43.80;;;;;;4975734;28;20045;-82
2021/03/28 08:34:51;;;;;;;11.53;2.10;;;12.50;43.10;;;;;;4982807;28;20042;-81
2021/03/28 08:37:43;;;;;;;14.63;2.58;;;12.90;41.70;;;;;;4990455;28;20454;-80
2021/03/28 08:40:08;;;;;;;7.72;1.58;;;13.20;40.20;;;;;;4973403;28;20031;-80
2021/03/28 08:43:00;;;;;;;9.93;1.92;;;13.30;37.20;;;;;;4979942;28;20051;-79
2021/03/28 08:45:33;;;;;;;12.27;2.17;;;13.00;38.70;;;;;;4978034;28;20674;-79
2021/03/28 08:48:43;;;;;;;19.13;2.15;;;13.30;37.40;;;;;;4978408;28;20027;-77
2021/03/28 08:51:21;;;;;;;14.13;2.17;;;13.20;37.20;;;;;;4974433;28;20038;-80
2021/03/28 08:54:09;;;;;;;8.10;1.83;;;13.80;36.60;;;;;;4975439;28;20053;-80
2021/03/28 08:56:56;;;;;;;10.65;2.15;;;14.00;32.40;;;;;;4985853;28;20311;-77
2021/03/28 08:59:41;;;;;;;12.13;2.47;;;14.10;33.70;;;;;;4980200;28;20050;-83
2021/03/28 09:02:06;;;;;;;12.40;1.80;;;14.60;29.50;;;;;;4977530;28;20038;-80
2021/03/28 09:05:06;;;;;;;5.45;2.10;;;14.80;27.70;;;;;;4978396;28;20031;-81
2021/03/28 09:07:52;;;;;;;9.02;1.55;;;15.10;26.90;;;;;;4982525;28;20055;-81
2021/03/28 09:10:27;;;;;;;6.20;2.22;;;15.10;28.30;;;;;;4969670;28;20042;-79
2021/03/28 09:12:56;;;;;;;8.15;1.50;;;16.20;26.10;;;;;;4979703;28;20134;-82
2021/03/28 09:15:33;;;;;;;10.10;1.73;;;15.80;24.40;;;;;;4984605;28;20912;-79
2021/03/28 09:18:25;;;;;;;5.30;1.23;;;16.60;24.40;;;;;;4976427;28;20375;-77
2021/03/28 09:21:11;;;;;;;11.10;2.22;;;16.80;21.70;;;;;;4977922;28;20054;-77
2021/03/28 09:23:52;;;;;;;7.10;1.75;;;17.10;21.00;;;;;;4978873;28;20476;-82
2021/03/28 09:26:32;;;;;;;4.65;1.58;;;17.50;19.70;;;;;;4981837;28;20058;-80
2021/03/28 09:28:58;;;;;;;9.07;1.80;;;17.50;17.80;;;;;;4981340;28;20508;-79
2021/03/28 09:31:23;;;;;;;3.30;1.27;;;18.30;17.80;;;;;;4980233;28;20034;-77
2021/03/28 09:33:58;;;;;;;5.47;1.40;;;18.60;16.40;;;;;;4978559;28;20628;-78
2021/03/28 09:36:38;;;;;;;;;;;18.60;17.40;;;;;;4985600;28;20035;-78
2021/03/28 09:39:19;;;;;;;5.82;1.30;;;17.70;13.60;;;;;;4979335;28;19925;-79
2021/03/28 09:42:15;;;;;;;9.38;1.77;;;17.30;16.00;;;;;;4981216;28;20045;-80
2021/03/28 09:44:55;;;;;;;8.20;1.65;;;18.00;16.10;;;;;;4974275;28;20035;-76
2021/03/28 09:47:45;;;;;;;4.32;1.00;;;17.70;15.90;;;;;;4976677;28;20058;-78
2021/03/28 09:50:35;;;;;;;7.90;1.88;;;18.40;15.10;;;;;;4999172;28;20035;-77
2021/03/28 09:53:19;;;;;;;5.40;1.33;;;20.00;14.30;;;;;;4992983;28;20080;-79
2021/03/28 09:55:48;;;;;;;6.38;1.65;;;18.50;12.50;;;;;;4994658;28;20097;-79
2021/03/28 09:58:37;;;;;;;5.47;1.60;;;18.30;13.90;;;;;;4996179;28;20130;-80
2021/03/28 10:01:22;;;;;;;7.40;2.00;;;18.40;15.20;;;;;;4991937;28;20035;-79
2021/03/28 10:04:20;;;;;;;5.47;1.35;;;18.70;15.40;;;;;;4992391;28;20069;-82
2021/03/28 10:06:56;;;;;;;9.35;1.52;;;17.40;15.80;;;;;;4971976;28;20413;-80
2021/03/28 10:09:50;;;;;;;7.68;1.80;;;17.70;15.00;;;;;;4978944;28;20074;-80
2021/03/28 10:12:19;;;;;;;7.53;1.85;;;18.50;16.60;;;;;;4990691;28;20046;-79
2021/03/28 10:14:52;;;;;;;9.00;1.83;;;18.90;16.10;;;;;;4974039;28;20134;-80
2021/03/28 10:17:39;;;;;;;6.95;1.67;;;19.00;15.00;;;;;;4968913;28;20138;-79
2021/03/28 10:20:18;;;;;;;6.35;1.77;;;20.00;13.90;;;;;;4974549;28;20043;-79
2021/03/28 10:23:19;;;;;;;6.18;2.00;;;20.50;14.30;;;;;;4988817;28;20561;-80
2021/03/28 10:26:13;;;;;;;4.85;1.63;;;20.40;13.20;;;;;;4975215;28;20030;-80
2021/03/28 10:29:03;;;;;;;8.77;1.90;;;20.10;12.20;;;;;;4976133;28;20086;-81
2021/03/28 10:32:12;;;;;;;3.35;1.33;;;19.60;11.80;;;;;;4971182;28;20140;-81
2021/03/28 10:34:38;;;;;;;6.72;1.50;;;19.30;13.40;;;;;;4971619;28;20046;-80
2021/03/28 10:37:58;;;;;;;9.25;1.90;;;19.20;13.40;;;;;;4970122;28;20142;-80
2021/03/28 10:40:44;;;;;;;6.30;1.65;;;19.40;14.00;;;;;;5004516;28;20679;-80
2021/03/28 10:43:15;;;;;;;7.38;1.88;;;20.60;12.90;;;;;;4974295;28;20501;-80
2021/03/28 10:45:47;;;;;;;5.82;1.88;;;20.00;12.20;;;;;;4971989;28;20049;-80
2021/03/28 10:48:50;;;;;;;6.40;2.20;;;20.30;12.30;;;;;;4984731;28;20035;-81
2021/03/28 10:51:37;;;;;;;7.57;1.75;;;19.00;12.60;;;;;;4977288;28;20073;-78
2021/03/28 10:54:32;;;;;;;7.82;1.58;;;19.60;12.10;;;;;;4969105;28;20494;-78
2021/03/28 10:57:20;;;;;;;5.57;1.70;;;18.90;12.30;;;;;;4991860;28;20042;-77
2021/03/28 10:59:49;;;;;;;6.90;1.88;;;19.00;13.50;;;;;;5003186;28;20058;-81
2021/03/28 11:02:36;;;;;;;4.93;1.65;;;20.60;13.80;;;;;;4971961;28;20042;-79
2021/03/28 11:05:39;;;;;;;6.82;1.75;;;20.40;12.30;;;;;;4967130;28;20030;-80
2021/03/28 11:08:25;;;;;;;8.48;1.92;;;21.00;12.20;;;;;;4967673;28;20058;-79
2021/03/28 11:11:11;;;;;;;7.28;1.50;;;21.80;12.00;;;;;;4970115;28;20039;-80
2021/03/28 11:13:42;;;;;;;4.90;1.58;;;21.70;11.90;;;;;;4979463;28;20038;-81
2021/03/28 11:16:27;;;;;;;7.93;1.33;;;22.10;11.50;;;;;;4979735;28;20031;-81
2021/03/28 11:19:30;;;;;;;5.55;1.70;;;22.00;10.00;;;;;;4980714;28;20556;-81
2021/03/28 11:22:18;;;;;;;6.85;1.90;;;20.50;10.10;;;;;;4983039;28;20035;-82
2021/03/28 11:25:11;;;;;;;7.70;2.00;;;20.70;11.60;;;;;;4969256;28;20047;-83
2021/03/28 11:28:01;;;;;;;6.30;2.40;;;20.50;11.40;;;;;;4964030;28;20141;-83
2021/03/28 11:30:51;;;;;;;9.82;2.08;;;20.90;12.30;;;;;;4975911;28;20031;-84
2021/03/28 11:33:37;;;;;;;7.00;1.63;;;20.00;10.00;;;;;;4972477;28;20090;-84
2021/03/28 11:36:11;;;;;;;7.57;2.45;;;21.80;10.80;;;;;;4972374;28;20080;-83
2021/03/28 11:38:41;;;;;;;5.55;1.48;;;21.10;10.30;;;;;;4973569;28;20509;-83
2021/03/28 11:41:06;;;;;;;7.80;1.92;;;20.90;11.10;;;;;;4972646;28;20038;-83
2021/03/28 11:43:43;;;;;;;7.28;1.55;;;20.20;11.60;;;;;;4972080;28;20042;-83
2021/03/28 11:46:30;;;;;;;5.22;1.92;;;20.40;11.30;;;;;;4974444;28;20118;-82
2021/03/28 11:48:56;;;;;;;10.18;2.00;;;21.20;12.30;;;;;;4987027;28;20039;-83
2021/03/28 11:51:29;;;;;;;8.40;2.13;;;21.60;11.40;;;;;;4985006;28;20041;-85
2021/03/28 11:54:09;;;;;;;7.70;2.58;;;21.00;11.00;;;;;;4983956;28;20038;-82
2021/03/28 11:56:52;;;;;;;6.50;1.80;;;20.90;11.80;;;;;;4977563;28;20525;-83
2021/03/28 11:59:18;;;;;;;11.85;2.47;;;19.80;12.70;;;;;;4977796;28;20094;-82
2021/03/28 12:01:55;;;;;;;7.53;2.13;;;20.80;12.90;;;;;;4984991;28;20043;-81
2021/03/28 12:04:31;;;;;;;13.25;2.00;;;21.30;12.40;;;;;;4980376;28;20050;-82
2021/03/28 12:07:17;;;;;;;5.18;1.80;;;21.80;12.10;;;;;;4987975;28;20128;-85
2021/03/28 12:09:51;;;;;;;5.82;1.88;;;21.40;10.90;;;;;;4980247;28;20062;-83
2021/03/28 12:12:32;;;;;;;9.63;1.50;;;21.90;11.00;;;;;;4985193;28;21333;-86
2021/03/28 12:15:36;;;;;;;8.25;1.83;;;21.80;11.70;;;;;;4989145;28;20100;-83
2021/03/28 12:18:31;;;;;;;4.80;1.65;;;22.00;10.80;;;;;;4983755;28;20031;-84
2021/03/28 12:21:02;;;;;;;7.40;2.08;;;21.00;11.00;;;;;;4982270;28;20118;-83
2021/03/28 12:23:49;;;;;;;6.47;1.80;;;20.50;11.60;;;;;;4978200;28;20054;-83
2021/03/28 12:26:28;;;;;;;6.57;1.60;;;21.40;11.80;;;;;;4978924;28;20034;-83
2021/03/28 12:29:05;;;;;;;3.58;1.48;;;21.90;11.00;;;;;;4974837;28;20050;-81
2021/03/28 12:31:46;;;;;;;8.05;1.95;;;21.50;10.60;;;;;;4973459;28;20354;-82
2021/03/28 12:34:27;;;;;;;4.45;1.40;;;21.40;11.00;;;;;;4976409;28;20035;-82
2021/03/28 12:36:58;;;;;;;3.60;1.40;;;21.60;10.40;;;;;;4980395;28;20050;-82
2021/03/28 12:39:41;;;;;;;6.93;1.70;;;22.30;11.20;;;;;;4975505;28;20038;-83
2021/03/28 12:42:27;;;;;;;11.57;2.40;;;21.50;10.50;;;;;;4976954;28;20054;-83
2021/03/28 12:45:07;;;;;;;5.60;1.73;;;19.70;11.00;;;;;;4979331;28;20043;-86
2021/03/28 12:47:40;;;;;;;8.65;1.90;;;20.00;11.80;;;;;;4982134;28;20031;-85
2021/03/28 12:50:15;;;;;;;7.20;1.70;;;20.00;11.60;;;;;;4986407;28;20031;-86
2021/03/28 12:53:05;;;;;;;12.52;2.15;;;20.60;12.50;;;;;;4977527;28;20038;-87
2021/03/28 12:55:38;;;;;;;5.22;1.50;;;21.40;12.20;;;;;;4976486;28;20619;-83
2021/03/28 12:58:07;;;;;;;6.20;1.73;;;22.40;11.40;;;;;;4975903;28;20033;-83
2021/03/28 13:01:09;;;;;;;9.07;1.45;;;22.30;10.60;;;;;;4979978;28;20039;-83
2021/03/28 13:03:44;;;;;;;4.68;1.50;;;22.00;10.50;;;;;;4987830;28;20050;-86
2021/03/28 13:06:41;;;;;;;7.38;1.80;;;21.10;11.20;;;;;;4981455;28;20058;-86
2021/03/28 13:09:09;;;;;;;9.27;1.67;;;21.60;10.20;;;;;;4975088;28;20080;-85
2021/03/28 13:11:42;;;;;;;2.35;1.20;;;21.20;11.40;;;;;;4983562;28;20183;-84
2021/03/28 13:14:33;;;;;;;7.47;2.08;;;21.30;10.90;;;;;;4986733;28;20049;-86
2021/03/28 13:17:25;;;;;;;7.80;1.92;;;20.30;11.80;;;;;;4977500;28;21589;-85
2021/03/28 13:20:09;;;;;;;7.43;1.85;;;20.20;12.80;;;;;;4978966;28;20038;-86
2021/03/28 13:22:39;;;;;;;7.13;1.50;;;20.60;12.00;;;;;;4978635;28;20187;-85
2021/03/28 13:25:16;;;;;;;6.90;1.67;;;21.40;12.40;;;;;;4978723;28;20042;-85
2021/03/28 13:28:05;;;;;;;6.65;1.30;;;20.10;11.60;;;;;;4975108;28;20730;-83
2021/03/28 13:30:41;;;;;;;7.93;1.60;;;20.70;11.90;;;;;;4988715;28;20323;-83
2021/03/28 13:33:24;;;;;;;8.02;1.92;;;21.60;11.40;;;;;;4983721;28;20031;-84
2021/03/28 13:35:52;;;;;;;10.02;1.92;;;20.60;11.60;;;;;;4976263;28;20101;-85
2021/03/28 13:38:33;;;;;;;10.40;2.13;;;20.60;12.40;;;;;;4989273;28;20051;-83
2021/03/28 13:41:05;;;;;;;6.15;1.38;;;20.90;12.00;;;;;;4994770;28;20031;-84
2021/03/28 13:43:34;;;;;;;8.13;2.00;;;21.00;12.50;;;;;;4984168;28;20116;-85
2021/03/28 13:46:15;;;;;;;4.55;1.70;;;21.70;11.70;;;;;;4982490;28;20042;-85
2021/03/28 13:48:43;;;;;;;9.43;1.73;;;21.30;11.30;;;;;;4983329;28;20864;-84
2021/03/28 13:51:11;;;;;;;5.28;1.77;;;21.00;11.70;;;;;;4972866;28;20031;-83
2021/03/28 13:53:41;;;;;;;8.20;1.70;;;20.50;13.40;;;;;;4976421;28;20046;-79
2021/03/28 13:56:10;;;;;;;8.18;1.67;;;19.90;13.00;;;;;;4976634;28;20039;-83
2021/03/28 13:58:46;;;;;;;10.15;1.90;;;19.20;12.80;;;;;;4973847;28;20405;-84
2021/03/28 14:01:52;;;;;;;6.50;1.60;;;18.80;13.70;;;;;;4972884;28;20046;-83
2021/03/28 14:04:42;;;;;;;10.18;1.70;;;18.70;14.80;;;;;;4970754;28;20070;-81
2021/03/28 14:07:32;;;;;;;5.43;1.42;;;18.40;14.80;;;;;;4973480;28;20035;-80
2021/03/28 14:10:04;;;;;;;6.88;1.67;;;18.40;15.00;;;;;;4969355;28;20393;-79
2021/03/28 14:12:55;;;;;;;5.25;1.58;;;18.10;15.20;;;;;;4968357;28;20038;-81
2021/03/28 14:15:24;;;;;;;6.18;1.73;;;18.10;15.50;;;;;;4968930;28;20098;-82
2021/03/28 14:18:01;;;;;;;6.38;1.35;;;17.90;15.80;;;;;;4974454;28;20118;-83